Portada
METAR-TAF:

METAR-TAF

Aeropuertos :

Aeropuerto de Andorra-La Seu

Seo de Urgel, España

latitud: 42-20-29N, longitud: 001-24-17E, altitud: 802 m

Observación

El informe se hizo hace 14 horas y 59 minutos, a las 16:00 UTC
Viento 6 kt del suroeste, variando entre sur-suroeste y oeste
Temperatura 9°C
Humedad 57%
Presión 1006 hPa
Visibilidad 10 km o más
Nubes dispersas a una altura de 7000 ft

METAR: LESU 211600Z 23006KT 200V270 9999 SCT070 09/01 Q1006

Hora: 07:59 (06:59 UTC)

Pronóstico

El informe se hizo hace 4 horas y 59 minutos, a las 02:00 UTC
Pronóstico válido del 22 a las 03 UTC al 23 a las 03 UTC
Viento 4 kt con dirección variable
Visibilidad 10 km o más
Escasas nubes a una altura de 5000 ft
Probabilidad 40% :
Temporalmente
del 22 a las 12 UTC al 23 a las 03 UTC
Visibilidad: 2000 m
Cielo nuboso a una altura de 500 ft
lluvia

TAF: LESU 220200Z 2203/2303 VRB04KT 9999 FEW050 TX11/2213Z TNM01/2206Z PROB40 TEMPO 2212/2303 2000 RA BKN005

Observaciones y pronósticos meteorológicos de más de 4000 aeropuertos (mensajes METAR y TAF).

Los puntos amarillos y rojos representan las estaciones disponibles.

Ponga el ratón en el punto deseado para ver el nombre de la estación.

Haga clic para ver las observaciones y los pronósticos meteorológicos.

Para cambiar el mapa : haga clic en los botones verdes con una cruz de color negro para hacer un zoom, en el botón verde con un guión para alejar o en las flechas verdes para mapas adyacentes.


METAR-TAF: